sensor_id;sensor_type;location;lat;lon;timestamp;P1;durP1;ratioP1;P2;durP2;ratioP2
22768;SDS011;13001;51.968;5.918;2023-12-20T00:02:05;13.75;;;2.05;;
22768;SDS011;13001;51.968;5.918;2023-12-20T00:04:33;15.18;;;2.40;;
22768;SDS011;13001;51.968;5.918;2023-12-20T00:07:00;11.00;;;2.27;;
22768;SDS011;13001;51.968;5.918;2023-12-20T00:09:28;14.35;;;2.50;;
22768;SDS011;13001;51.968;5.918;2023-12-20T00:11:55;14.95;;;3.47;;
22768;SDS011;13001;51.968;5.918;2023-12-20T00:14:24;13.60;;;2.97;;
22768;SDS011;13001;51.968;5.918;2023-12-20T00:16:51;14.33;;;3.30;;
22768;SDS011;13001;51.968;5.918;2023-12-20T00:19:19;14.03;;;3.10;;
22768;SDS011;13001;51.968;5.918;2023-12-20T00:21:46;17.65;;;3.35;;
22768;SDS011;13001;51.968;5.918;2023-12-20T00:24:13;14.93;;;3.17;;
22768;SDS011;13001;51.968;5.918;2023-12-20T00:26:41;19.50;;;3.30;;
22768;SDS011;13001;51.968;5.918;2023-12-20T00:29:09;13.35;;;3.20;;
22768;SDS011;13001;51.968;5.918;2023-12-20T00:31:36;16.62;;;3.52;;
22768;SDS011;13001;51.968;5.918;2023-12-20T00:34:03;21.75;;;3.60;;
22768;SDS011;13001;51.968;5.918;2023-12-20T00:36:33;16.67;;;3.62;;
22768;SDS011;13001;51.968;5.918;2023-12-20T00:39:00;16.05;;;3.40;;
22768;SDS011;13001;51.968;5.918;2023-12-20T00:41:30;17.47;;;3.63;;
22768;SDS011;13001;51.968;5.918;2023-12-20T00:43:57;14.68;;;3.42;;
22768;SDS011;13001;51.968;5.918;2023-12-20T00:46:24;22.17;;;4.80;;
22768;SDS011;13001;51.968;5.918;2023-12-20T00:48:52;17.77;;;3.90;;
22768;SDS011;13001;51.968;5.918;2023-12-20T00:51:19;22.00;;;3.83;;
22768;SDS011;13001;51.968;5.918;2023-12-20T00:53:46;16.20;;;3.90;;
22768;SDS011;13001;51.968;5.918;2023-12-20T00:56:15;20.52;;;3.85;;
22768;SDS011;13001;51.968;5.918;2023-12-20T00:58:42;19.37;;;3.83;;
22768;SDS011;13001;51.968;5.918;2023-12-20T01:01:10;20.48;;;4.05;;
22768;SDS011;13001;51.968;5.918;2023-12-20T01:03:37;18.95;;;3.75;;
22768;SDS011;13001;51.968;5.918;2023-12-20T01:06:05;18.45;;;3.50;;
22768;SDS011;13001;51.968;5.918;2023-12-20T01:08:32;16.57;;;3.42;;
22768;SDS011;13001;51.968;5.918;2023-12-20T01:11:03;19.98;;;3.80;;
22768;SDS011;13001;51.968;5.918;2023-12-20T01:13:30;17.27;;;3.60;;
22768;SDS011;13001;51.968;5.918;2023-12-20T01:15:57;20.12;;;3.60;;
22768;SDS011;13001;51.968;5.918;2023-12-20T01:18:25;17.73;;;3.37;;
22768;SDS011;13001;51.968;5.918;2023-12-20T01:20:52;19.42;;;3.80;;
22768;SDS011;13001;51.968;5.918;2023-12-20T01:23:20;16.23;;;2.98;;
22768;SDS011;13001;51.968;5.918;2023-12-20T01:25:48;22.55;;;3.33;;
22768;SDS011;13001;51.968;5.918;2023-12-20T01:28:16;20.62;;;2.72;;
22768;SDS011;13001;51.968;5.918;2023-12-20T01:30:43;16.67;;;3.12;;
22768;SDS011;13001;51.968;5.918;2023-12-20T01:33:10;19.50;;;2.90;;
22768;SDS011;13001;51.968;5.918;2023-12-20T01:35:38;21.12;;;2.62;;
22768;SDS011;13001;51.968;5.918;2023-12-20T01:38:05;20.02;;;2.95;;
22768;SDS011;13001;51.968;5.918;2023-12-20T01:40:33;19.10;;;3.07;;
22768;SDS011;13001;51.968;5.918;2023-12-20T01:43:04;22.57;;;3.00;;
22768;SDS011;13001;51.968;5.918;2023-12-20T01:45:31;16.80;;;2.83;;
22768;SDS011;13001;51.968;5.918;2023-12-20T01:47:58;18.23;;;2.95;;
22768;SDS011;13001;51.968;5.918;2023-12-20T01:50:25;17.60;;;2.55;;
22768;SDS011;13001;51.968;5.918;2023-12-20T01:52:53;16.25;;;2.70;;
22768;SDS011;13001;51.968;5.918;2023-12-20T01:55:24;20.23;;;3.22;;
22768;SDS011;13001;51.968;5.918;2023-12-20T01:57:52;21.65;;;2.85;;
22768;SDS011;13001;51.968;5.918;2023-12-20T02:00:19;17.70;;;2.30;;
22768;SDS011;13001;51.968;5.918;2023-12-20T02:02:48;23.12;;;2.70;;
22768;SDS011;13001;51.968;5.918;2023-12-20T02:05:17;20.67;;;3.10;;
22768;SDS011;13001;51.968;5.918;2023-12-20T02:07:45;21.15;;;2.62;;
22768;SDS011;13001;51.968;5.918;2023-12-20T02:10:12;26.17;;;3.42;;
22768;SDS011;13001;51.968;5.918;2023-12-20T02:12:40;19.12;;;2.55;;
22768;SDS011;13001;51.968;5.918;2023-12-20T02:15:07;14.70;;;2.50;;
22768;SDS011;13001;51.968;5.918;2023-12-20T02:17:35;22.20;;;2.77;;
22768;SDS011;13001;51.968;5.918;2023-12-20T02:20:03;14.83;;;2.60;;
22768;SDS011;13001;51.968;5.918;2023-12-20T02:22:32;26.48;;;3.10;;
22768;SDS011;13001;51.968;5.918;2023-12-20T02:24:59;18.77;;;2.72;;
22768;SDS011;13001;51.968;5.918;2023-12-20T02:27:26;25.35;;;2.60;;
22768;SDS011;13001;51.968;5.918;2023-12-20T02:29:54;17.67;;;2.60;;
22768;SDS011;13001;51.968;5.918;2023-12-20T02:32:23;16.60;;;2.70;;
22768;SDS011;13001;51.968;5.918;2023-12-20T02:34:53;18.65;;;2.80;;
22768;SDS011;13001;51.968;5.918;2023-12-20T02:37:20;18.25;;;2.65;;
22768;SDS011;13001;51.968;5.918;2023-12-20T02:39:47;17.23;;;2.55;;
22768;SDS011;13001;51.968;5.918;2023-12-20T02:42:15;19.05;;;2.95;;
22768;SDS011;13001;51.968;5.918;2023-12-20T02:44:42;19.57;;;2.93;;
22768;SDS011;13001;51.968;5.918;2023-12-20T02:47:09;21.35;;;3.47;;
22768;SDS011;13001;51.968;5.918;2023-12-20T02:49:36;19.32;;;3.10;;
22768;SDS011;13001;51.968;5.918;2023-12-20T02:52:04;18.90;;;3.00;;
22768;SDS011;13001;51.968;5.918;2023-12-20T02:54:31;17.25;;;2.98;;
22768;SDS011;13001;51.968;5.918;2023-12-20T02:56:59;16.17;;;2.72;;
22768;SDS011;13001;51.968;5.918;2023-12-20T02:59:26;22.93;;;3.27;;
22768;SDS011;13001;51.968;5.918;2023-12-20T03:01:53;25.62;;;3.20;;
22768;SDS011;13001;51.968;5.918;2023-12-20T03:04:20;18.90;;;3.40;;
22768;SDS011;13001;51.968;5.918;2023-12-20T03:06:48;20.70;;;3.17;;
22768;SDS011;13001;51.968;5.918;2023-12-20T03:09:15;14.93;;;3.42;;
22768;SDS011;13001;51.968;5.918;2023-12-20T03:11:42;21.55;;;3.75;;
22768;SDS011;13001;51.968;5.918;2023-12-20T03:14:10;23.62;;;3.58;;
22768;SDS011;13001;51.968;5.918;2023-12-20T03:16:37;15.72;;;3.30;;
22768;SDS011;13001;51.968;5.918;2023-12-20T03:19:04;19.27;;;3.20;;
22768;SDS011;13001;51.968;5.918;2023-12-20T03:21:31;25.10;;;3.72;;
22768;SDS011;13001;51.968;5.918;2023-12-20T03:23:59;19.67;;;3.33;;
22768;SDS011;13001;51.968;5.918;2023-12-20T03:26:26;27.62;;;3.75;;
22768;SDS011;13001;51.968;5.918;2023-12-20T03:28:53;15.78;;;3.42;;
22768;SDS011;13001;51.968;5.918;2023-12-20T03:31:20;22.42;;;3.40;;
22768;SDS011;13001;51.968;5.918;2023-12-20T03:33:48;21.97;;;3.87;;
22768;SDS011;13001;51.968;5.918;2023-12-20T03:36:15;17.12;;;3.55;;
22768;SDS011;13001;51.968;5.918;2023-12-20T03:38:42;22.33;;;3.60;;
22768;SDS011;13001;51.968;5.918;2023-12-20T03:41:10;20.57;;;3.77;;
22768;SDS011;13001;51.968;5.918;2023-12-20T03:43:37;23.05;;;3.55;;
22768;SDS011;13001;51.968;5.918;2023-12-20T03:46:04;25.30;;;3.85;;
22768;SDS011;13001;51.968;5.918;2023-12-20T03:48:32;20.15;;;3.70;;
22768;SDS011;13001;51.968;5.918;2023-12-20T03:51:00;20.77;;;3.70;;
22768;SDS011;13001;51.968;5.918;2023-12-20T03:53:29;22.40;;;3.85;;
22768;SDS011;13001;51.968;5.918;2023-12-20T03:55:56;20.10;;;3.85;;
22768;SDS011;13001;51.968;5.918;2023-12-20T03:58:23;20.95;;;3.58;;
22768;SDS011;13001;51.968;5.918;2023-12-20T04:00:51;27.22;;;3.77;;
22768;SDS011;13001;51.968;5.918;2023-12-20T04:03:18;26.17;;;3.70;;
22768;SDS011;13001;51.968;5.918;2023-12-20T04:05:45;24.85;;;3.87;;
22768;SDS011;13001;51.968;5.918;2023-12-20T04:08:12;25.53;;;4.13;;
22768;SDS011;13001;51.968;5.918;2023-12-20T04:10:40;22.95;;;3.95;;
22768;SDS011;13001;51.968;5.918;2023-12-20T04:13:07;26.93;;;3.80;;
22768;SDS011;13001;51.968;5.918;2023-12-20T04:15:34;20.55;;;3.67;;
22768;SDS011;13001;51.968;5.918;2023-12-20T04:18:02;22.67;;;3.70;;
22768;SDS011;13001;51.968;5.918;2023-12-20T04:20:29;20.05;;;3.75;;
22768;SDS011;13001;51.968;5.918;2023-12-20T04:22:56;22.10;;;3.67;;
22768;SDS011;13001;51.968;5.918;2023-12-20T04:25:23;24.43;;;3.75;;
22768;SDS011;13001;51.968;5.918;2023-12-20T04:27:51;24.67;;;3.45;;
22768;SDS011;13001;51.968;5.918;2023-12-20T04:30:18;20.70;;;3.85;;
22768;SDS011;13001;51.968;5.918;2023-12-20T04:32:45;23.32;;;3.62;;
22768;SDS011;13001;51.968;5.918;2023-12-20T04:35:13;24.25;;;3.87;;
22768;SDS011;13001;51.968;5.918;2023-12-20T04:37:40;18.10;;;3.58;;
22768;SDS011;13001;51.968;5.918;2023-12-20T04:40:07;23.75;;;3.95;;
22768;SDS011;13001;51.968;5.918;2023-12-20T04:42:34;24.52;;;3.90;;
22768;SDS011;13001;51.968;5.918;2023-12-20T04:45:02;27.70;;;4.12;;
22768;SDS011;13001;51.968;5.918;2023-12-20T04:47:29;25.88;;;3.90;;
22768;SDS011;13001;51.968;5.918;2023-12-20T04:49:56;25.92;;;4.12;;
22768;SDS011;13001;51.968;5.918;2023-12-20T04:52:23;25.03;;;4.10;;
22768;SDS011;13001;51.968;5.918;2023-12-20T04:54:51;23.80;;;3.75;;
22768;SDS011;13001;51.968;5.918;2023-12-20T04:57:18;27.45;;;4.00;;
22768;SDS011;13001;51.968;5.918;2023-12-20T04:59:45;21.70;;;3.92;;
22768;SDS011;13001;51.968;5.918;2023-12-20T05:02:13;17.73;;;3.30;;
22768;SDS011;13001;51.968;5.918;2023-12-20T05:04:40;22.45;;;3.58;;
22768;SDS011;13001;51.968;5.918;2023-12-20T05:07:07;20.48;;;3.40;;
22768;SDS011;13001;51.968;5.918;2023-12-20T05:09:35;24.70;;;3.52;;
22768;SDS011;13001;51.968;5.918;2023-12-20T05:12:02;24.67;;;3.67;;
22768;SDS011;13001;51.968;5.918;2023-12-20T05:14:29;26.68;;;3.50;;
22768;SDS011;13001;51.968;5.918;2023-12-20T05:16:56;30.05;;;3.80;;
22768;SDS011;13001;51.968;5.918;2023-12-20T05:19:25;29.98;;;3.52;;
22768;SDS011;13001;51.968;5.918;2023-12-20T05:21:52;25.65;;;3.90;;
22768;SDS011;13001;51.968;5.918;2023-12-20T05:24:20;21.97;;;3.70;;
22768;SDS011;13001;51.968;5.918;2023-12-20T05:26:48;23.90;;;3.62;;
22768;SDS011;13001;51.968;5.918;2023-12-20T05:29:15;26.73;;;3.90;;
22768;SDS011;13001;51.968;5.918;2023-12-20T05:31:43;27.55;;;3.87;;
22768;SDS011;13001;51.968;5.918;2023-12-20T05:34:10;21.97;;;3.62;;
22768;SDS011;13001;51.968;5.918;2023-12-20T05:36:37;32.45;;;3.85;;
22768;SDS011;13001;51.968;5.918;2023-12-20T05:39:05;24.12;;;4.08;;
22768;SDS011;13001;51.968;5.918;2023-12-20T05:41:34;24.72;;;3.67;;
22768;SDS011;13001;51.968;5.918;2023-12-20T05:44:01;22.35;;;3.67;;
22768;SDS011;13001;51.968;5.918;2023-12-20T05:46:28;20.35;;;3.65;;
22768;SDS011;13001;51.968;5.918;2023-12-20T05:48:56;24.05;;;3.40;;
22768;SDS011;13001;51.968;5.918;2023-12-20T05:51:23;23.32;;;3.27;;
22768;SDS011;13001;51.968;5.918;2023-12-20T05:53:50;21.50;;;3.50;;
22768;SDS011;13001;51.968;5.918;2023-12-20T05:56:18;20.45;;;3.37;;
22768;SDS011;13001;51.968;5.918;2023-12-20T05:58:47;20.20;;;3.65;;
22768;SDS011;13001;51.968;5.918;2023-12-20T06:01:16;23.42;;;3.25;;
22768;SDS011;13001;51.968;5.918;2023-12-20T06:03:43;19.32;;;3.45;;
22768;SDS011;13001;51.968;5.918;2023-12-20T06:06:12;27.62;;;3.40;;
22768;SDS011;13001;51.968;5.918;2023-12-20T06:08:40;24.20;;;3.65;;
22768;SDS011;13001;51.968;5.918;2023-12-20T06:11:09;18.07;;;3.52;;
22768;SDS011;13001;51.968;5.918;2023-12-20T06:13:36;22.82;;;3.05;;
22768;SDS011;13001;51.968;5.918;2023-12-20T06:16:05;21.33;;;3.67;;
22768;SDS011;13001;51.968;5.918;2023-12-20T06:18:33;25.57;;;3.70;;
22768;SDS011;13001;51.968;5.918;2023-12-20T06:21:01;22.00;;;3.60;;
22768;SDS011;13001;51.968;5.918;2023-12-20T06:23:28;25.70;;;3.87;;
22768;SDS011;13001;51.968;5.918;2023-12-20T06:25:56;21.27;;;3.65;;
22768;SDS011;13001;51.968;5.918;2023-12-20T06:28:24;23.15;;;3.40;;
22768;SDS011;13001;51.968;5.918;2023-12-20T06:30:53;18.37;;;3.33;;
22768;SDS011;13001;51.968;5.918;2023-12-20T06:33:21;26.12;;;3.75;;
22768;SDS011;13001;51.968;5.918;2023-12-20T06:35:49;24.18;;;3.42;;
22768;SDS011;13001;51.968;5.918;2023-12-20T06:38:17;22.03;;;3.43;;
22768;SDS011;13001;51.968;5.918;2023-12-20T06:40:44;23.00;;;3.67;;
22768;SDS011;13001;51.968;5.918;2023-12-20T06:43:12;24.40;;;3.65;;
22768;SDS011;13001;51.968;5.918;2023-12-20T06:45:40;22.22;;;3.37;;
22768;SDS011;13001;51.968;5.918;2023-12-20T06:48:07;18.70;;;3.30;;
22768;SDS011;13001;51.968;5.918;2023-12-20T06:50:34;22.55;;;3.65;;
22768;SDS011;13001;51.968;5.918;2023-12-20T06:53:03;23.00;;;3.62;;
22768;SDS011;13001;51.968;5.918;2023-12-20T06:55:33;22.95;;;4.05;;
22768;SDS011;13001;51.968;5.918;2023-12-20T06:58:01;24.53;;;3.93;;
22768;SDS011;13001;51.968;5.918;2023-12-20T07:00:28;25.10;;;3.60;;
22768;SDS011;13001;51.968;5.918;2023-12-20T07:02:56;19.05;;;3.17;;
22768;SDS011;13001;51.968;5.918;2023-12-20T07:05:23;21.95;;;3.52;;
22768;SDS011;13001;51.968;5.918;2023-12-20T07:07:50;23.32;;;3.42;;
22768;SDS011;13001;51.968;5.918;2023-12-20T07:10:17;22.93;;;3.70;;
22768;SDS011;13001;51.968;5.918;2023-12-20T07:12:45;20.48;;;3.27;;
22768;SDS011;13001;51.968;5.918;2023-12-20T07:15:12;23.73;;;3.77;;
22768;SDS011;13001;51.968;5.918;2023-12-20T07:17:39;21.27;;;3.40;;
22768;SDS011;13001;51.968;5.918;2023-12-20T07:20:07;26.07;;;3.92;;
22768;SDS011;13001;51.968;5.918;2023-12-20T07:22:36;18.47;;;3.13;;
22768;SDS011;13001;51.968;5.918;2023-12-20T07:25:04;18.27;;;3.47;;
22768;SDS011;13001;51.968;5.918;2023-12-20T07:27:31;19.65;;;3.58;;
22768;SDS011;13001;51.968;5.918;2023-12-20T07:29:58;24.75;;;3.77;;
22768;SDS011;13001;51.968;5.918;2023-12-20T07:32:25;19.60;;;3.25;;
22768;SDS011;13001;51.968;5.918;2023-12-20T07:34:53;21.65;;;3.80;;
22768;SDS011;13001;51.968;5.918;2023-12-20T07:37:21;18.02;;;3.27;;
22768;SDS011;13001;51.968;5.918;2023-12-20T07:39:48;18.87;;;3.52;;
22768;SDS011;13001;51.968;5.918;2023-12-20T07:42:15;24.70;;;4.17;;
22768;SDS011;13001;51.968;5.918;2023-12-20T07:44:42;23.83;;;3.85;;
22768;SDS011;13001;51.968;5.918;2023-12-20T07:47:09;18.50;;;3.57;;
22768;SDS011;13001;51.968;5.918;2023-12-20T07:49:38;19.62;;;3.75;;
22768;SDS011;13001;51.968;5.918;2023-12-20T07:52:06;22.93;;;3.80;;
22768;SDS011;13001;51.968;5.918;2023-12-20T07:54:34;25.02;;;3.67;;
22768;SDS011;13001;51.968;5.918;2023-12-20T07:57:01;27.17;;;3.83;;
22768;SDS011;13001;51.968;5.918;2023-12-20T07:59:28;27.52;;;4.05;;
22768;SDS011;13001;51.968;5.918;2023-12-20T08:01:56;17.07;;;3.30;;
22768;SDS011;13001;51.968;5.918;2023-12-20T08:04:23;24.87;;;4.20;;
22768;SDS011;13001;51.968;5.918;2023-12-20T08:06:50;19.35;;;3.33;;
22768;SDS011;13001;51.968;5.918;2023-12-20T08:09:18;20.27;;;3.77;;
22768;SDS011;13001;51.968;5.918;2023-12-20T08:11:50;17.03;;;3.37;;
22768;SDS011;13001;51.968;5.918;2023-12-20T08:14:14;28.20;;;3.87;;
22768;SDS011;13001;51.968;5.918;2023-12-20T08:16:42;21.70;;;3.62;;
22768;SDS011;13001;51.968;5.918;2023-12-20T08:19:09;21.20;;;3.53;;
22768;SDS011;13001;51.968;5.918;2023-12-20T08:21:36;23.50;;;4.00;;
22768;SDS011;13001;51.968;5.918;2023-12-20T08:24:04;18.25;;;3.72;;
22768;SDS011;13001;51.968;5.918;2023-12-20T08:26:31;22.82;;;4.05;;
22768;SDS011;13001;51.968;5.918;2023-12-20T08:28:58;21.25;;;3.45;;
22768;SDS011;13001;51.968;5.918;2023-12-20T08:31:25;24.20;;;3.62;;
22768;SDS011;13001;51.968;5.918;2023-12-20T08:33:53;19.87;;;3.70;;
22768;SDS011;13001;51.968;5.918;2023-12-20T08:36:20;18.77;;;3.72;;
22768;SDS011;13001;51.968;5.918;2023-12-20T08:38:49;26.02;;;3.67;;
22768;SDS011;13001;51.968;5.918;2023-12-20T08:41:17;21.68;;;3.52;;
22768;SDS011;13001;51.968;5.918;2023-12-20T08:43:44;18.40;;;3.40;;
22768;SDS011;13001;51.968;5.918;2023-12-20T08:46:13;27.75;;;3.67;;
22768;SDS011;13001;51.968;5.918;2023-12-20T08:48:40;21.07;;;3.83;;
22768;SDS011;13001;51.968;5.918;2023-12-20T08:51:07;24.55;;;3.83;;
22768;SDS011;13001;51.968;5.918;2023-12-20T08:53:35;16.70;;;3.10;;
22768;SDS011;13001;51.968;5.918;2023-12-20T08:56:03;23.22;;;3.67;;
22768;SDS011;13001;51.968;5.918;2023-12-20T08:58:30;20.60;;;3.67;;
22768;SDS011;13001;51.968;5.918;2023-12-20T09:00:57;16.97;;;3.17;;
22768;SDS011;13001;51.968;5.918;2023-12-20T09:03:24;21.23;;;3.98;;
22768;SDS011;13001;51.968;5.918;2023-12-20T09:05:52;20.60;;;3.47;;
22768;SDS011;13001;51.968;5.918;2023-12-20T09:08:19;15.03;;;3.27;;
22768;SDS011;13001;51.968;5.918;2023-12-20T09:10:46;24.23;;;3.42;;
22768;SDS011;13001;51.968;5.918;2023-12-20T09:13:13;24.43;;;3.53;;
22768;SDS011;13001;51.968;5.918;2023-12-20T09:15:41;20.92;;;3.40;;
22768;SDS011;13001;51.968;5.918;2023-12-20T09:18:08;24.12;;;3.37;;
22768;SDS011;13001;51.968;5.918;2023-12-20T09:20:35;20.50;;;3.77;;
22768;SDS011;13001;51.968;5.918;2023-12-20T09:23:02;19.17;;;3.67;;
22768;SDS011;13001;51.968;5.918;2023-12-20T09:25:30;19.97;;;3.87;;
22768;SDS011;13001;51.968;5.918;2023-12-20T09:27:57;25.50;;;3.52;;
22768;SDS011;13001;51.968;5.918;2023-12-20T09:30:24;20.55;;;4.15;;
22768;SDS011;13001;51.968;5.918;2023-12-20T09:32:52;19.80;;;3.47;;
22768;SDS011;13001;51.968;5.918;2023-12-20T09:35:19;20.72;;;3.70;;
22768;SDS011;13001;51.968;5.918;2023-12-20T09:37:46;26.15;;;3.58;;
22768;SDS011;13001;51.968;5.918;2023-12-20T09:40:13;21.40;;;3.75;;
22768;SDS011;13001;51.968;5.918;2023-12-20T09:45:12;21.75;;;3.87;;
22768;SDS011;13001;51.968;5.918;2023-12-20T09:47:41;24.95;;;4.08;;
22768;SDS011;13001;51.968;5.918;2023-12-20T09:50:09;24.80;;;3.98;;
22768;SDS011;13001;51.968;5.918;2023-12-20T09:52:36;24.90;;;4.00;;
22768;SDS011;13001;51.968;5.918;2023-12-20T09:55:04;21.75;;;3.62;;
22768;SDS011;13001;51.968;5.918;2023-12-20T09:57:35;23.27;;;3.97;;
22768;SDS011;13001;51.968;5.918;2023-12-20T10:00:03;21.80;;;3.47;;
22768;SDS011;13001;51.968;5.918;2023-12-20T10:02:30;28.30;;;4.08;;
22768;SDS011;13001;51.968;5.918;2023-12-20T10:04:58;25.27;;;3.95;;
22768;SDS011;13001;51.968;5.918;2023-12-20T10:07:26;28.03;;;4.03;;
22768;SDS011;13001;51.968;5.918;2023-12-20T10:09:54;20.88;;;3.70;;
22768;SDS011;13001;51.968;5.918;2023-12-20T10:12:22;21.25;;;3.75;;
22768;SDS011;13001;51.968;5.918;2023-12-20T10:14:50;20.25;;;3.90;;
22768;SDS011;13001;51.968;5.918;2023-12-20T10:17:18;22.30;;;4.10;;
22768;SDS011;13001;51.968;5.918;2023-12-20T10:19:45;28.77;;;4.03;;
22768;SDS011;13001;51.968;5.918;2023-12-20T10:22:12;27.90;;;4.03;;
22768;SDS011;13001;51.968;5.918;2023-12-20T10:24:39;24.47;;;4.03;;
22768;SDS011;13001;51.968;5.918;2023-12-20T10:27:07;23.57;;;4.20;;
22768;SDS011;13001;51.968;5.918;2023-12-20T10:29:35;23.83;;;3.95;;
22768;SDS011;13001;51.968;5.918;2023-12-20T10:34:48;25.77;;;4.30;;
22768;SDS011;13001;51.968;5.918;2023-12-20T10:37:15;24.05;;;4.12;;
22768;SDS011;13001;51.968;5.918;2023-12-20T10:39:42;22.87;;;4.03;;
22768;SDS011;13001;51.968;5.918;2023-12-20T10:42:11;25.62;;;4.15;;
22768;SDS011;13001;51.968;5.918;2023-12-20T10:44:41;22.02;;;4.15;;
22768;SDS011;13001;51.968;5.918;2023-12-20T10:47:09;24.05;;;4.47;;
22768;SDS011;13001;51.968;5.918;2023-12-20T10:49:38;23.77;;;3.90;;
22768;SDS011;13001;51.968;5.918;2023-12-20T10:52:06;22.55;;;3.75;;
22768;SDS011;13001;51.968;5.918;2023-12-20T10:54:33;27.17;;;4.17;;
22768;SDS011;13001;51.968;5.918;2023-12-20T10:57:00;24.45;;;3.98;;
22768;SDS011;13001;51.968;5.918;2023-12-20T10:59:36;27.55;;;4.17;;
22768;SDS011;13001;51.968;5.918;2023-12-20T11:02:00;25.37;;;4.20;;
22768;SDS011;13001;51.968;5.918;2023-12-20T11:05:16;29.70;;;4.70;;
22768;SDS011;13001;51.968;5.918;2023-12-20T11:07:16;23.75;;;3.95;;
22768;SDS011;13001;51.968;5.918;2023-12-20T11:09:35;26.30;;;4.47;;
22768;SDS011;13001;51.968;5.918;2023-12-20T11:12:19;19.37;;;3.70;;
22768;SDS011;13001;51.968;5.918;2023-12-20T11:14:47;22.50;;;3.85;;
22768;SDS011;13001;51.968;5.918;2023-12-20T11:17:14;25.77;;;4.00;;
22768;SDS011;13001;51.968;5.918;2023-12-20T11:22:30;20.77;;;4.40;;
22768;SDS011;13001;51.968;5.918;2023-12-20T11:24:58;23.40;;;4.15;;
22768;SDS011;13001;51.968;5.918;2023-12-20T11:27:26;19.57;;;3.83;;
22768;SDS011;13001;51.968;5.918;2023-12-20T11:29:58;26.97;;;4.45;;
22768;SDS011;13001;51.968;5.918;2023-12-20T11:34:55;19.48;;;3.50;;
22768;SDS011;13001;51.968;5.918;2023-12-20T11:37:25;24.40;;;3.92;;
22768;SDS011;13001;51.968;5.918;2023-12-20T11:39:56;25.97;;;4.20;;
22768;SDS011;13001;51.968;5.918;2023-12-20T11:42:20;19.55;;;3.85;;
22768;SDS011;13001;51.968;5.918;2023-12-20T11:44:47;20.68;;;3.75;;
22768;SDS011;13001;51.968;5.918;2023-12-20T11:47:14;23.52;;;3.98;;
22768;SDS011;13001;51.968;5.918;2023-12-20T11:49:43;24.12;;;3.83;;
22768;SDS011;13001;51.968;5.918;2023-12-20T11:52:12;19.27;;;3.67;;
22768;SDS011;13001;51.968;5.918;2023-12-20T11:54:39;23.65;;;4.33;;
22768;SDS011;13001;51.968;5.918;2023-12-20T11:57:07;18.73;;;3.83;;
22768;SDS011;13001;51.968;5.918;2023-12-20T11:59:36;17.27;;;3.67;;
22768;SDS011;13001;51.968;5.918;2023-12-20T12:02:03;19.65;;;3.65;;
22768;SDS011;13001;51.968;5.918;2023-12-20T12:04:30;20.43;;;3.57;;
22768;SDS011;13001;51.968;5.918;2023-12-20T12:06:58;27.13;;;4.15;;
22768;SDS011;13001;51.968;5.918;2023-12-20T12:09:25;22.73;;;4.00;;
22768;SDS011;13001;51.968;5.918;2023-12-20T12:11:52;26.87;;;4.27;;
22768;SDS011;13001;51.968;5.918;2023-12-20T12:14:19;20.65;;;3.90;;
22768;SDS011;13001;51.968;5.918;2023-12-20T12:16:47;20.32;;;3.90;;
22768;SDS011;13001;51.968;5.918;2023-12-20T12:19:20;24.67;;;3.90;;
22768;SDS011;13001;51.968;5.918;2023-12-20T12:21:48;18.32;;;3.20;;
22768;SDS011;13001;51.968;5.918;2023-12-20T12:24:19;20.85;;;3.10;;
22768;SDS011;13001;51.968;5.918;2023-12-20T12:26:49;14.43;;;2.70;;
22768;SDS011;13001;51.968;5.918;2023-12-20T12:29:13;11.57;;;2.60;;
22768;SDS011;13001;51.968;5.918;2023-12-20T12:31:41;15.68;;;2.95;;
22768;SDS011;13001;51.968;5.918;2023-12-20T12:34:08;16.27;;;3.02;;
22768;SDS011;13001;51.968;5.918;2023-12-20T12:36:35;17.55;;;3.05;;
22768;SDS011;13001;51.968;5.918;2023-12-20T12:39:03;22.70;;;3.60;;
22768;SDS011;13001;51.968;5.918;2023-12-20T12:41:31;22.50;;;4.12;;
22768;SDS011;13001;51.968;5.918;2023-12-20T12:43:58;21.95;;;3.80;;
22768;SDS011;13001;51.968;5.918;2023-12-20T12:46:25;24.47;;;4.05;;
22768;SDS011;13001;51.968;5.918;2023-12-20T12:48:52;21.07;;;3.90;;
22768;SDS011;13001;51.968;5.918;2023-12-20T12:51:20;24.73;;;4.00;;
22768;SDS011;13001;51.968;5.918;2023-12-20T12:53:47;25.27;;;4.33;;
22768;SDS011;13001;51.968;5.918;2023-12-20T12:56:14;21.65;;;3.75;;
22768;SDS011;13001;51.968;5.918;2023-12-20T12:58:45;20.95;;;3.90;;
22768;SDS011;13001;51.968;5.918;2023-12-20T13:01:12;20.92;;;4.00;;
22768;SDS011;13001;51.968;5.918;2023-12-20T13:03:40;24.92;;;4.35;;
22768;SDS011;13001;51.968;5.918;2023-12-20T13:06:07;24.32;;;3.83;;
22768;SDS011;13001;51.968;5.918;2023-12-20T13:08:35;24.55;;;3.75;;
22768;SDS011;13001;51.968;5.918;2023-12-20T13:11:02;24.52;;;4.15;;
22768;SDS011;13001;51.968;5.918;2023-12-20T13:13:30;20.17;;;3.60;;
22768;SDS011;13001;51.968;5.918;2023-12-20T13:15:58;21.85;;;3.62;;
22768;SDS011;13001;51.968;5.918;2023-12-20T13:18:25;18.40;;;3.08;;
22768;SDS011;13001;51.968;5.918;2023-12-20T13:20:52;20.62;;;3.52;;
22768;SDS011;13001;51.968;5.918;2023-12-20T13:23:19;15.68;;;3.22;;
22768;SDS011;13001;51.968;5.918;2023-12-20T13:25:47;17.73;;;3.35;;
22768;SDS011;13001;51.968;5.918;2023-12-20T13:28:14;19.20;;;3.30;;
22768;SDS011;13001;51.968;5.918;2023-12-20T13:30:41;18.12;;;3.42;;
22768;SDS011;13001;51.968;5.918;2023-12-20T13:33:08;16.05;;;3.20;;
22768;SDS011;13001;51.968;5.918;2023-12-20T13:35:36;15.78;;;2.80;;
22768;SDS011;13001;51.968;5.918;2023-12-20T13:38:03;18.27;;;2.92;;
22768;SDS011;13001;51.968;5.918;2023-12-20T13:40:32;20.68;;;3.20;;
22768;SDS011;13001;51.968;5.918;2023-12-20T13:42:59;18.00;;;2.90;;
22768;SDS011;13001;51.968;5.918;2023-12-20T13:45:27;21.62;;;3.00;;
22768;SDS011;13001;51.968;5.918;2023-12-20T13:47:54;17.07;;;3.05;;
22768;SDS011;13001;51.968;5.918;2023-12-20T13:50:21;19.33;;;2.97;;
22768;SDS011;13001;51.968;5.918;2023-12-20T13:52:48;14.87;;;2.58;;
22768;SDS011;13001;51.968;5.918;2023-12-20T13:55:16;18.48;;;3.15;;
22768;SDS011;13001;51.968;5.918;2023-12-20T13:57:43;15.48;;;2.83;;
22768;SDS011;13001;51.968;5.918;2023-12-20T14:00:11;16.73;;;2.67;;
22768;SDS011;13001;51.968;5.918;2023-12-20T14:02:40;16.52;;;2.80;;
22768;SDS011;13001;51.968;5.918;2023-12-20T14:05:08;20.17;;;3.12;;
22768;SDS011;13001;51.968;5.918;2023-12-20T14:07:36;17.65;;;2.33;;
22768;SDS011;13001;51.968;5.918;2023-12-20T14:10:03;22.20;;;3.03;;
22768;SDS011;13001;51.968;5.918;2023-12-20T14:12:32;16.73;;;2.75;;
22768;SDS011;13001;51.968;5.918;2023-12-20T14:15:00;21.55;;;3.33;;
22768;SDS011;13001;51.968;5.918;2023-12-20T14:17:28;11.50;;;2.58;;
22768;SDS011;13001;51.968;5.918;2023-12-20T14:19:55;19.87;;;3.03;;
22768;SDS011;13001;51.968;5.918;2023-12-20T14:22:22;14.75;;;3.10;;
22768;SDS011;13001;51.968;5.918;2023-12-20T14:24:51;18.60;;;3.17;;
22768;SDS011;13001;51.968;5.918;2023-12-20T14:27:18;16.77;;;2.70;;
22768;SDS011;13001;51.968;5.918;2023-12-20T14:29:47;16.62;;;3.12;;
22768;SDS011;13001;51.968;5.918;2023-12-20T14:32:15;19.55;;;2.75;;
22768;SDS011;13001;51.968;5.918;2023-12-20T14:34:42;17.42;;;3.05;;
22768;SDS011;13001;51.968;5.918;2023-12-20T14:37:12;18.05;;;2.85;;
22768;SDS011;13001;51.968;5.918;2023-12-20T14:39:40;16.70;;;2.62;;
22768;SDS011;13001;51.968;5.918;2023-12-20T14:42:08;15.18;;;2.98;;
22768;SDS011;13001;51.968;5.918;2023-12-20T14:44:37;17.27;;;2.58;;
22768;SDS011;13001;51.968;5.918;2023-12-20T14:47:04;18.67;;;3.05;;